sensor_id;sensor_type;location;lat;lon;timestamp;P1;durP1;ratioP1;P2;durP2;ratioP2
8327;SDS011;4201;48.754;8.864;2024-02-21T00:00:08;14.53;;;6.67;;
8327;SDS011;4201;48.754;8.864;2024-02-21T00:02:36;13.30;;;7.33;;
8327;SDS011;4201;48.754;8.864;2024-02-21T00:05:02;16.30;;;5.50;;
8327;SDS011;4201;48.754;8.864;2024-02-21T00:07:28;22.67;;;6.10;;
8327;SDS011;4201;48.754;8.864;2024-02-21T00:09:56;14.80;;;6.60;;
8327;SDS011;4201;48.754;8.864;2024-02-21T00:12:22;11.57;;;6.37;;
8327;SDS011;4201;48.754;8.864;2024-02-21T00:14:49;21.27;;;6.93;;
8327;SDS011;4201;48.754;8.864;2024-02-21T00:17:15;19.00;;;6.70;;
8327;SDS011;4201;48.754;8.864;2024-02-21T00:19:41;13.40;;;6.50;;
8327;SDS011;4201;48.754;8.864;2024-02-21T00:22:08;23.80;;;6.50;;
8327;SDS011;4201;48.754;8.864;2024-02-21T00:24:34;14.17;;;5.40;;
8327;SDS011;4201;48.754;8.864;2024-02-21T00:27:01;10.33;;;6.30;;
8327;SDS011;4201;48.754;8.864;2024-02-21T00:29:28;14.27;;;5.90;;
8327;SDS011;4201;48.754;8.864;2024-02-21T00:31:54;18.33;;;8.50;;
8327;SDS011;4201;48.754;8.864;2024-02-21T00:34:20;22.30;;;6.70;;
8327;SDS011;4201;48.754;8.864;2024-02-21T00:36:46;14.00;;;5.70;;
8327;SDS011;4201;48.754;8.864;2024-02-21T00:39:13;12.17;;;6.60;;
8327;SDS011;4201;48.754;8.864;2024-02-21T00:41:39;20.60;;;7.73;;
8327;SDS011;4201;48.754;8.864;2024-02-21T00:44:06;16.53;;;5.80;;
8327;SDS011;4201;48.754;8.864;2024-02-21T00:46:33;13.30;;;6.57;;
8327;SDS011;4201;48.754;8.864;2024-02-21T00:48:59;13.80;;;6.23;;
8327;SDS011;4201;48.754;8.864;2024-02-21T00:51:25;19.80;;;7.10;;
8327;SDS011;4201;48.754;8.864;2024-02-21T00:53:51;18.00;;;6.20;;
8327;SDS011;4201;48.754;8.864;2024-02-21T00:56:17;17.37;;;6.90;;
8327;SDS011;4201;48.754;8.864;2024-02-21T00:58:44;15.33;;;6.33;;
8327;SDS011;4201;48.754;8.864;2024-02-21T01:01:11;12.83;;;6.60;;
8327;SDS011;4201;48.754;8.864;2024-02-21T01:03:39;21.27;;;5.53;;
8327;SDS011;4201;48.754;8.864;2024-02-21T01:06:05;15.13;;;6.57;;
8327;SDS011;4201;48.754;8.864;2024-02-21T01:08:31;14.27;;;6.27;;
8327;SDS011;4201;48.754;8.864;2024-02-21T01:10:57;20.90;;;6.87;;
8327;SDS011;4201;48.754;8.864;2024-02-21T01:13:24;18.93;;;8.17;;
8327;SDS011;4201;48.754;8.864;2024-02-21T01:15:50;11.83;;;6.70;;
8327;SDS011;4201;48.754;8.864;2024-02-21T01:18:17;15.23;;;6.20;;
8327;SDS011;4201;48.754;8.864;2024-02-21T01:20:44;22.20;;;5.97;;
8327;SDS011;4201;48.754;8.864;2024-02-21T01:23:10;17.93;;;7.50;;
8327;SDS011;4201;48.754;8.864;2024-02-21T01:25:36;13.90;;;5.93;;
8327;SDS011;4201;48.754;8.864;2024-02-21T01:28:03;13.10;;;6.07;;
8327;SDS011;4201;48.754;8.864;2024-02-21T01:30:29;15.33;;;5.70;;
8327;SDS011;4201;48.754;8.864;2024-02-21T01:32:55;10.97;;;5.40;;
8327;SDS011;4201;48.754;8.864;2024-02-21T01:35:23;10.87;;;5.40;;
8327;SDS011;4201;48.754;8.864;2024-02-21T01:37:50;13.27;;;6.07;;
8327;SDS011;4201;48.754;8.864;2024-02-21T01:40:16;12.40;;;5.00;;
8327;SDS011;4201;48.754;8.864;2024-02-21T01:42:43;22.27;;;6.70;;
8327;SDS011;4201;48.754;8.864;2024-02-21T01:45:10;19.77;;;7.17;;
8327;SDS011;4201;48.754;8.864;2024-02-21T01:47:36;21.60;;;6.43;;
8327;SDS011;4201;48.754;8.864;2024-02-21T01:50:03;12.00;;;6.37;;
8327;SDS011;4201;48.754;8.864;2024-02-21T01:52:30;12.70;;;6.17;;
8327;SDS011;4201;48.754;8.864;2024-02-21T01:54:56;20.00;;;6.60;;
8327;SDS011;4201;48.754;8.864;2024-02-21T01:57:22;15.03;;;6.63;;
8327;SDS011;4201;48.754;8.864;2024-02-21T01:59:48;9.10;;;5.23;;
8327;SDS011;4201;48.754;8.864;2024-02-21T02:02:15;18.57;;;6.37;;
8327;SDS011;4201;48.754;8.864;2024-02-21T02:04:41;19.00;;;5.67;;
8327;SDS011;4201;48.754;8.864;2024-02-21T02:07:08;13.50;;;5.63;;
8327;SDS011;4201;48.754;8.864;2024-02-21T02:09:36;12.87;;;5.53;;
8327;SDS011;4201;48.754;8.864;2024-02-21T02:12:02;15.60;;;5.53;;
8327;SDS011;4201;48.754;8.864;2024-02-21T02:14:29;8.47;;;5.20;;
8327;SDS011;4201;48.754;8.864;2024-02-21T02:16:55;15.33;;;6.17;;
8327;SDS011;4201;48.754;8.864;2024-02-21T02:19:21;18.67;;;5.87;;
8327;SDS011;4201;48.754;8.864;2024-02-21T02:21:49;9.83;;;5.27;;
8327;SDS011;4201;48.754;8.864;2024-02-21T02:24:19;11.20;;;4.77;;
8327;SDS011;4201;48.754;8.864;2024-02-21T02:26:46;15.03;;;5.57;;
8327;SDS011;4201;48.754;8.864;2024-02-21T02:29:12;12.10;;;4.70;;
8327;SDS011;4201;48.754;8.864;2024-02-21T02:31:38;14.77;;;6.40;;
8327;SDS011;4201;48.754;8.864;2024-02-21T02:34:03;12.93;;;5.53;;
8327;SDS011;4201;48.754;8.864;2024-02-21T02:36:30;14.30;;;5.70;;
8327;SDS011;4201;48.754;8.864;2024-02-21T02:38:56;16.03;;;5.53;;
8327;SDS011;4201;48.754;8.864;2024-02-21T02:41:24;19.63;;;4.80;;
8327;SDS011;4201;48.754;8.864;2024-02-21T02:43:50;11.47;;;4.97;;
8327;SDS011;4201;48.754;8.864;2024-02-21T02:46:16;18.00;;;5.17;;
8327;SDS011;4201;48.754;8.864;2024-02-21T02:48:43;11.47;;;4.53;;
8327;SDS011;4201;48.754;8.864;2024-02-21T02:51:09;12.23;;;5.20;;
8327;SDS011;4201;48.754;8.864;2024-02-21T02:53:36;13.63;;;5.77;;
8327;SDS011;4201;48.754;8.864;2024-02-21T02:56:02;11.33;;;4.33;;
8327;SDS011;4201;48.754;8.864;2024-02-21T02:58:30;18.63;;;5.50;;
8327;SDS011;4201;48.754;8.864;2024-02-21T03:00:56;16.17;;;5.20;;
8327;SDS011;4201;48.754;8.864;2024-02-21T03:03:22;9.47;;;4.77;;
8327;SDS011;4201;48.754;8.864;2024-02-21T03:05:48;9.37;;;4.53;;
8327;SDS011;4201;48.754;8.864;2024-02-21T03:08:14;11.87;;;5.40;;
8327;SDS011;4201;48.754;8.864;2024-02-21T03:10:41;14.17;;;5.20;;
8327;SDS011;4201;48.754;8.864;2024-02-21T03:13:07;11.53;;;4.90;;
8327;SDS011;4201;48.754;8.864;2024-02-21T03:15:34;13.07;;;5.57;;
8327;SDS011;4201;48.754;8.864;2024-02-21T03:18:01;18.30;;;4.40;;
8327;SDS011;4201;48.754;8.864;2024-02-21T03:20:27;10.23;;;4.70;;
8327;SDS011;4201;48.754;8.864;2024-02-21T03:22:53;9.70;;;4.67;;
8327;SDS011;4201;48.754;8.864;2024-02-21T03:25:19;16.20;;;5.20;;
8327;SDS011;4201;48.754;8.864;2024-02-21T03:27:46;15.77;;;5.80;;
8327;SDS011;4201;48.754;8.864;2024-02-21T03:30:12;18.37;;;6.17;;
8327;SDS011;4201;48.754;8.864;2024-02-21T03:32:40;13.83;;;4.90;;
8327;SDS011;4201;48.754;8.864;2024-02-21T03:35:06;11.37;;;4.30;;
8327;SDS011;4201;48.754;8.864;2024-02-21T03:37:32;8.60;;;4.30;;
8327;SDS011;4201;48.754;8.864;2024-02-21T03:39:59;13.10;;;5.80;;
8327;SDS011;4201;48.754;8.864;2024-02-21T03:42:25;13.90;;;4.97;;
8327;SDS011;4201;48.754;8.864;2024-02-21T03:44:51;11.53;;;4.90;;
8327;SDS011;4201;48.754;8.864;2024-02-21T03:47:17;12.57;;;4.40;;
8327;SDS011;4201;48.754;8.864;2024-02-21T03:49:45;18.13;;;4.70;;
8327;SDS011;4201;48.754;8.864;2024-02-21T03:52:11;11.60;;;4.77;;
8327;SDS011;4201;48.754;8.864;2024-02-21T03:54:37;12.13;;;5.40;;
8327;SDS011;4201;48.754;8.864;2024-02-21T03:57:04;9.67;;;5.70;;
8327;SDS011;4201;48.754;8.864;2024-02-21T03:59:31;12.00;;;4.77;;
8327;SDS011;4201;48.754;8.864;2024-02-21T04:01:57;12.80;;;5.27;;
8327;SDS011;4201;48.754;8.864;2024-02-21T04:04:24;9.27;;;4.00;;
8327;SDS011;4201;48.754;8.864;2024-02-21T04:06:51;11.17;;;5.20;;
8327;SDS011;4201;48.754;8.864;2024-02-21T04:09:18;12.37;;;5.27;;
8327;SDS011;4201;48.754;8.864;2024-02-21T04:11:44;10.20;;;4.97;;
8327;SDS011;4201;48.754;8.864;2024-02-21T04:14:10;15.73;;;5.43;;
8327;SDS011;4201;48.754;8.864;2024-02-21T04:16:37;15.50;;;5.43;;
8327;SDS011;4201;48.754;8.864;2024-02-21T04:19:03;19.23;;;5.10;;
8327;SDS011;4201;48.754;8.864;2024-02-21T04:21:30;9.80;;;5.77;;
8327;SDS011;4201;48.754;8.864;2024-02-21T04:23:57;13.10;;;4.90;;
8327;SDS011;4201;48.754;8.864;2024-02-21T04:26:23;14.07;;;5.47;;
8327;SDS011;4201;48.754;8.864;2024-02-21T04:28:50;12.17;;;5.10;;
8327;SDS011;4201;48.754;8.864;2024-02-21T04:31:16;9.63;;;4.90;;
8327;SDS011;4201;48.754;8.864;2024-02-21T04:33:42;13.00;;;5.00;;
8327;SDS011;4201;48.754;8.864;2024-02-21T04:36:08;15.43;;;5.13;;
8327;SDS011;4201;48.754;8.864;2024-02-21T04:38:35;10.90;;;4.77;;
8327;SDS011;4201;48.754;8.864;2024-02-21T04:41:02;13.10;;;5.90;;
8327;SDS011;4201;48.754;8.864;2024-02-21T04:43:29;15.23;;;5.00;;
8327;SDS011;4201;48.754;8.864;2024-02-21T04:45:55;14.50;;;6.00;;
8327;SDS011;4201;48.754;8.864;2024-02-21T04:48:21;10.40;;;5.37;;
8327;SDS011;4201;48.754;8.864;2024-02-21T04:50:48;14.77;;;5.60;;
8327;SDS011;4201;48.754;8.864;2024-02-21T04:53:14;12.73;;;5.87;;
8327;SDS011;4201;48.754;8.864;2024-02-21T04:55:41;14.80;;;5.67;;
8327;SDS011;4201;48.754;8.864;2024-02-21T04:58:08;11.60;;;5.40;;
8327;SDS011;4201;48.754;8.864;2024-02-21T05:00:35;15.03;;;6.67;;
8327;SDS011;4201;48.754;8.864;2024-02-21T05:03:01;9.90;;;5.83;;
8327;SDS011;4201;48.754;8.864;2024-02-21T05:05:27;14.30;;;5.57;;
8327;SDS011;4201;48.754;8.864;2024-02-21T05:07:54;14.97;;;5.53;;
8327;SDS011;4201;48.754;8.864;2024-02-21T05:10:20;12.40;;;4.93;;
8327;SDS011;4201;48.754;8.864;2024-02-21T05:12:46;12.83;;;5.27;;
8327;SDS011;4201;48.754;8.864;2024-02-21T05:15:14;12.37;;;4.40;;
8327;SDS011;4201;48.754;8.864;2024-02-21T05:17:40;12.20;;;5.50;;
8327;SDS011;4201;48.754;8.864;2024-02-21T05:20:08;12.67;;;5.43;;
8327;SDS011;4201;48.754;8.864;2024-02-21T05:22:34;15.43;;;4.63;;
8327;SDS011;4201;48.754;8.864;2024-02-21T05:25:00;11.80;;;5.17;;
8327;SDS011;4201;48.754;8.864;2024-02-21T05:27:27;11.77;;;5.13;;
8327;SDS011;4201;48.754;8.864;2024-02-21T05:29:53;15.00;;;5.20;;
8327;SDS011;4201;48.754;8.864;2024-02-21T05:32:20;12.40;;;5.57;;
8327;SDS011;4201;48.754;8.864;2024-02-21T05:34:48;11.00;;;5.33;;
8327;SDS011;4201;48.754;8.864;2024-02-21T05:37:14;14.90;;;5.20;;
8327;SDS011;4201;48.754;8.864;2024-02-21T05:39:40;17.33;;;6.03;;
8327;SDS011;4201;48.754;8.864;2024-02-21T05:42:07;18.80;;;5.40;;
8327;SDS011;4201;48.754;8.864;2024-02-21T05:44:33;9.77;;;5.50;;
8327;SDS011;4201;48.754;8.864;2024-02-21T05:46:59;17.60;;;4.80;;
8327;SDS011;4201;48.754;8.864;2024-02-21T05:49:27;11.77;;;5.30;;
8327;SDS011;4201;48.754;8.864;2024-02-21T05:51:53;10.50;;;4.90;;
8327;SDS011;4201;48.754;8.864;2024-02-21T05:54:19;9.30;;;4.80;;
8327;SDS011;4201;48.754;8.864;2024-02-21T05:56:45;20.40;;;5.13;;
8327;SDS011;4201;48.754;8.864;2024-02-21T05:59:12;10.57;;;4.80;;
8327;SDS011;4201;48.754;8.864;2024-02-21T06:01:38;16.47;;;4.50;;
8327;SDS011;4201;48.754;8.864;2024-02-21T06:04:04;17.20;;;4.77;;
8327;SDS011;4201;48.754;8.864;2024-02-21T06:06:32;14.27;;;4.00;;
8327;SDS011;4201;48.754;8.864;2024-02-21T06:08:58;9.90;;;4.57;;
8327;SDS011;4201;48.754;8.864;2024-02-21T06:11:25;14.07;;;5.40;;
8327;SDS011;4201;48.754;8.864;2024-02-21T06:13:51;13.97;;;4.63;;
8327;SDS011;4201;48.754;8.864;2024-02-21T06:16:17;11.63;;;5.00;;
8327;SDS011;4201;48.754;8.864;2024-02-21T06:18:43;13.60;;;4.47;;
8327;SDS011;4201;48.754;8.864;2024-02-21T06:21:10;17.90;;;5.00;;
8327;SDS011;4201;48.754;8.864;2024-02-21T06:23:38;8.87;;;4.37;;
8327;SDS011;4201;48.754;8.864;2024-02-21T06:26:05;14.13;;;4.60;;
8327;SDS011;4201;48.754;8.864;2024-02-21T06:28:31;11.03;;;5.37;;
8327;SDS011;4201;48.754;8.864;2024-02-21T06:30:58;18.93;;;6.20;;
8327;SDS011;4201;48.754;8.864;2024-02-21T06:33:24;14.53;;;4.50;;
8327;SDS011;4201;48.754;8.864;2024-02-21T06:35:50;11.17;;;5.50;;
8327;SDS011;4201;48.754;8.864;2024-02-21T06:38:18;19.90;;;5.57;;
8327;SDS011;4201;48.754;8.864;2024-02-21T06:40:45;12.63;;;5.70;;
8327;SDS011;4201;48.754;8.864;2024-02-21T06:43:16;10.93;;;4.90;;
8327;SDS011;4201;48.754;8.864;2024-02-21T06:45:42;12.80;;;4.80;;
8327;SDS011;4201;48.754;8.864;2024-02-21T06:48:12;15.30;;;5.00;;
8327;SDS011;4201;48.754;8.864;2024-02-21T06:50:38;10.77;;;5.00;;
8327;SDS011;4201;48.754;8.864;2024-02-21T06:53:04;12.90;;;4.80;;
8327;SDS011;4201;48.754;8.864;2024-02-21T06:55:31;12.93;;;5.07;;
8327;SDS011;4201;48.754;8.864;2024-02-21T06:57:58;11.97;;;4.20;;
8327;SDS011;4201;48.754;8.864;2024-02-21T07:00:24;8.97;;;3.57;;
8327;SDS011;4201;48.754;8.864;2024-02-21T07:02:51;13.47;;;4.03;;
8327;SDS011;4201;48.754;8.864;2024-02-21T07:05:17;10.93;;;4.50;;
8327;SDS011;4201;48.754;8.864;2024-02-21T07:07:44;20.17;;;8.20;;
8327;SDS011;4201;48.754;8.864;2024-02-21T07:10:10;20.90;;;7.87;;
8327;SDS011;4201;48.754;8.864;2024-02-21T07:12:36;10.63;;;6.47;;
8327;SDS011;4201;48.754;8.864;2024-02-21T07:15:05;11.30;;;5.67;;
8327;SDS011;4201;48.754;8.864;2024-02-21T07:17:31;12.00;;;5.77;;
8327;SDS011;4201;48.754;8.864;2024-02-21T07:19:57;16.07;;;6.33;;
8327;SDS011;4201;48.754;8.864;2024-02-21T07:22:24;12.80;;;6.70;;
8327;SDS011;4201;48.754;8.864;2024-02-21T07:24:50;14.60;;;7.10;;
8327;SDS011;4201;48.754;8.864;2024-02-21T07:27:16;16.47;;;7.13;;
8327;SDS011;4201;48.754;8.864;2024-02-21T07:29:42;14.10;;;7.80;;
8327;SDS011;4201;48.754;8.864;2024-02-21T07:32:13;9.70;;;5.37;;
8327;SDS011;4201;48.754;8.864;2024-02-21T07:34:40;13.40;;;5.43;;
8327;SDS011;4201;48.754;8.864;2024-02-21T07:37:06;15.43;;;6.20;;
8327;SDS011;4201;48.754;8.864;2024-02-21T07:39:35;16.23;;;7.20;;
8327;SDS011;4201;48.754;8.864;2024-02-21T07:42:01;24.50;;;11.33;;
8327;SDS011;4201;48.754;8.864;2024-02-21T07:44:27;25.90;;;9.53;;
8327;SDS011;4201;48.754;8.864;2024-02-21T07:46:54;24.37;;;10.87;;
8327;SDS011;4201;48.754;8.864;2024-02-21T07:49:21;19.70;;;8.70;;
8327;SDS011;4201;48.754;8.864;2024-02-21T07:51:47;15.57;;;7.20;;
8327;SDS011;4201;48.754;8.864;2024-02-21T07:54:14;13.60;;;9.17;;
8327;SDS011;4201;48.754;8.864;2024-02-21T07:56:40;12.90;;;5.00;;
8327;SDS011;4201;48.754;8.864;2024-02-21T07:59:06;15.37;;;5.10;;
8327;SDS011;4201;48.754;8.864;2024-02-21T08:01:33;16.13;;;5.83;;
8327;SDS011;4201;48.754;8.864;2024-02-21T08:03:59;15.60;;;4.40;;
8327;SDS011;4201;48.754;8.864;2024-02-21T08:06:29;13.23;;;4.27;;
8327;SDS011;4201;48.754;8.864;2024-02-21T08:08:55;11.77;;;4.00;;
8327;SDS011;4201;48.754;8.864;2024-02-21T08:11:22;10.10;;;4.00;;
8327;SDS011;4201;48.754;8.864;2024-02-21T08:13:48;12.00;;;4.07;;
8327;SDS011;4201;48.754;8.864;2024-02-21T08:16:14;9.33;;;3.80;;
8327;SDS011;4201;48.754;8.864;2024-02-21T08:18:41;14.13;;;4.30;;
8327;SDS011;4201;48.754;8.864;2024-02-21T08:21:09;16.83;;;4.50;;
8327;SDS011;4201;48.754;8.864;2024-02-21T08:23:36;11.20;;;4.80;;
8327;SDS011;4201;48.754;8.864;2024-02-21T08:26:03;10.30;;;4.23;;
8327;SDS011;4201;48.754;8.864;2024-02-21T08:28:29;12.60;;;3.60;;
8327;SDS011;4201;48.754;8.864;2024-02-21T08:30:55;6.87;;;4.00;;
8327;SDS011;4201;48.754;8.864;2024-02-21T08:33:21;11.43;;;4.30;;
8327;SDS011;4201;48.754;8.864;2024-02-21T08:35:50;10.20;;;3.60;;
8327;SDS011;4201;48.754;8.864;2024-02-21T08:38:16;9.73;;;3.30;;
8327;SDS011;4201;48.754;8.864;2024-02-21T08:40:45;8.40;;;4.07;;
8327;SDS011;4201;48.754;8.864;2024-02-21T08:43:11;12.87;;;3.37;;
8327;SDS011;4201;48.754;8.864;2024-02-21T08:45:37;17.93;;;3.80;;
8327;SDS011;4201;48.754;8.864;2024-02-21T08:48:04;18.93;;;3.43;;
8327;SDS011;4201;48.754;8.864;2024-02-21T08:50:31;11.03;;;2.90;;
8327;SDS011;4201;48.754;8.864;2024-02-21T08:52:57;9.20;;;3.30;;
8327;SDS011;4201;48.754;8.864;2024-02-21T08:55:23;10.67;;;3.23;;
8327;SDS011;4201;48.754;8.864;2024-02-21T08:57:51;15.20;;;3.30;;
8327;SDS011;4201;48.754;8.864;2024-02-21T09:00:17;8.00;;;2.97;;
8327;SDS011;4201;48.754;8.864;2024-02-21T09:02:48;11.83;;;3.30;;
8327;SDS011;4201;48.754;8.864;2024-02-21T09:05:15;9.60;;;2.60;;
8327;SDS011;4201;48.754;8.864;2024-02-21T09:07:41;13.50;;;3.23;;
8327;SDS011;4201;48.754;8.864;2024-02-21T09:10:08;5.80;;;3.00;;
8327;SDS011;4201;48.754;8.864;2024-02-21T09:12:34;9.80;;;3.30;;
8327;SDS011;4201;48.754;8.864;2024-02-21T09:15:02;9.73;;;3.10;;
8327;SDS011;4201;48.754;8.864;2024-02-21T09:17:28;8.97;;;2.80;;
8327;SDS011;4201;48.754;8.864;2024-02-21T09:19:55;10.43;;;3.13;;
8327;SDS011;4201;48.754;8.864;2024-02-21T09:22:24;10.60;;;3.50;;
8327;SDS011;4201;48.754;8.864;2024-02-21T09:24:50;5.97;;;2.80;;
8327;SDS011;4201;48.754;8.864;2024-02-21T09:27:16;8.53;;;2.90;;
8327;SDS011;4201;48.754;8.864;2024-02-21T09:29:42;12.03;;;3.37;;
8327;SDS011;4201;48.754;8.864;2024-02-21T09:32:10;7.27;;;3.20;;
8327;SDS011;4201;48.754;8.864;2024-02-21T09:34:37;9.77;;;3.10;;
8327;SDS011;4201;48.754;8.864;2024-02-21T09:37:04;15.50;;;3.20;;
8327;SDS011;4201;48.754;8.864;2024-02-21T09:39:31;7.30;;;2.80;;
8327;SDS011;4201;48.754;8.864;2024-02-21T09:41:58;8.30;;;3.63;;
8327;SDS011;4201;48.754;8.864;2024-02-21T09:44:25;7.30;;;3.50;;
8327;SDS011;4201;48.754;8.864;2024-02-21T09:46:55;7.33;;;3.17;;
8327;SDS011;4201;48.754;8.864;2024-02-21T09:49:29;11.17;;;3.67;;
8327;SDS011;4201;48.754;8.864;2024-02-21T09:51:56;15.47;;;3.60;;
8327;SDS011;4201;48.754;8.864;2024-02-21T09:54:23;9.23;;;3.07;;
8327;SDS011;4201;48.754;8.864;2024-02-21T09:56:49;7.57;;;3.10;;
8327;SDS011;4201;48.754;8.864;2024-02-21T09:59:16;7.80;;;3.03;;
8327;SDS011;4201;48.754;8.864;2024-02-21T10:01:42;11.97;;;3.30;;
8327;SDS011;4201;48.754;8.864;2024-02-21T10:04:09;5.57;;;3.10;;
8327;SDS011;4201;48.754;8.864;2024-02-21T10:06:36;10.80;;;3.70;;
8327;SDS011;4201;48.754;8.864;2024-02-21T10:09:04;7.73;;;2.97;;
8327;SDS011;4201;48.754;8.864;2024-02-21T10:11:31;11.17;;;2.93;;
8327;SDS011;4201;48.754;8.864;2024-02-21T10:14:03;9.97;;;2.97;;
8327;SDS011;4201;48.754;8.864;2024-02-21T10:16:29;8.83;;;2.67;;
8327;SDS011;4201;48.754;8.864;2024-02-21T10:18:56;8.77;;;2.70;;
8327;SDS011;4201;48.754;8.864;2024-02-21T10:21:22;6.80;;;2.70;;
8327;SDS011;4201;48.754;8.864;2024-02-21T10:23:50;9.83;;;3.07;;
8327;SDS011;4201;48.754;8.864;2024-02-21T10:26:16;8.37;;;2.40;;
8327;SDS011;4201;48.754;8.864;2024-02-21T10:28:43;7.60;;;2.77;;
8327;SDS011;4201;48.754;8.864;2024-02-21T10:31:10;5.20;;;2.60;;
8327;SDS011;4201;48.754;8.864;2024-02-21T10:33:36;9.33;;;2.77;;
8327;SDS011;4201;48.754;8.864;2024-02-21T10:36:07;8.63;;;2.53;;
8327;SDS011;4201;48.754;8.864;2024-02-21T10:38:33;10.57;;;3.30;;
8327;SDS011;4201;48.754;8.864;2024-02-21T10:41:00;9.00;;;2.87;;
8327;SDS011;4201;48.754;8.864;2024-02-21T10:43:28;9.93;;;2.33;;
8327;SDS011;4201;48.754;8.864;2024-02-21T10:45:56;8.30;;;4.03;;
8327;SDS011;4201;48.754;8.864;2024-02-21T10:48:25;8.70;;;3.10;;
8327;SDS011;4201;48.754;8.864;2024-02-21T10:50:56;4.43;;;2.40;;
8327;SDS011;4201;48.754;8.864;2024-02-21T10:53:24;6.17;;;2.37;;
8327;SDS011;4201;48.754;8.864;2024-02-21T10:55:56;7.47;;;3.30;;
8327;SDS011;4201;48.754;8.864;2024-02-21T10:58:26;8.23;;;2.93;;
8327;SDS011;4201;48.754;8.864;2024-02-21T11:00:54;5.80;;;2.50;;
8327;SDS011;4201;48.754;8.864;2024-02-21T11:03:21;6.30;;;2.90;;
8327;SDS011;4201;48.754;8.864;2024-02-21T11:05:47;7.57;;;3.20;;
8327;SDS011;4201;48.754;8.864;2024-02-21T11:08:14;10.63;;;4.03;;
8327;SDS011;4201;48.754;8.864;2024-02-21T11:10:39;7.00;;;2.43;;
8327;SDS011;4201;48.754;8.864;2024-02-21T11:13:06;8.80;;;2.90;;
8327;SDS011;4201;48.754;8.864;2024-02-21T11:15:34;6.83;;;2.53;;
8327;SDS011;4201;48.754;8.864;2024-02-21T11:18:01;5.83;;;2.47;;
8327;SDS011;4201;48.754;8.864;2024-02-21T11:20:37;5.33;;;2.90;;
8327;SDS011;4201;48.754;8.864;2024-02-21T11:23:03;8.43;;;3.13;;
8327;SDS011;4201;48.754;8.864;2024-02-21T11:25:30;6.63;;;2.43;;
8327;SDS011;4201;48.754;8.864;2024-02-21T11:28:01;9.37;;;2.70;;
8327;SDS011;4201;48.754;8.864;2024-02-21T11:30:29;8.17;;;2.57;;
8327;SDS011;4201;48.754;8.864;2024-02-21T11:33:01;4.37;;;2.10;;
8327;SDS011;4201;48.754;8.864;2024-02-21T11:35:30;6.97;;;2.13;;
8327;SDS011;4201;48.754;8.864;2024-02-21T11:37:57;5.73;;;2.23;;
8327;SDS011;4201;48.754;8.864;2024-02-21T11:40:33;7.20;;;3.70;;
8327;SDS011;4201;48.754;8.864;2024-02-21T11:42:59;7.63;;;2.43;;
8327;SDS011;4201;48.754;8.864;2024-02-21T11:45:26;5.97;;;2.07;;
8327;SDS011;4201;48.754;8.864;2024-02-21T11:47:52;8.90;;;4.17;;
8327;SDS011;4201;48.754;8.864;2024-02-21T11:50:20;8.67;;;2.37;;
8327;SDS011;4201;48.754;8.864;2024-02-21T11:52:46;7.00;;;2.27;;
8327;SDS011;4201;48.754;8.864;2024-02-21T11:55:14;7.80;;;2.57;;
8327;SDS011;4201;48.754;8.864;2024-02-21T11:57:40;6.47;;;3.20;;
8327;SDS011;4201;48.754;8.864;2024-02-21T12:00:14;4.77;;;3.10;;
8327;SDS011;4201;48.754;8.864;2024-02-21T12:02:41;8.10;;;2.70;;
8327;SDS011;4201;48.754;8.864;2024-02-21T12:05:07;6.87;;;2.80;;
8327;SDS011;4201;48.754;8.864;2024-02-21T12:07:37;5.70;;;2.70;;
8327;SDS011;4201;48.754;8.864;2024-02-21T12:10:06;13.33;;;3.30;;
8327;SDS011;4201;48.754;8.864;2024-02-21T12:12:32;18.23;;;4.83;;
8327;SDS011;4201;48.754;8.864;2024-02-21T12:15:01;8.93;;;2.53;;
8327;SDS011;4201;48.754;8.864;2024-02-21T12:17:29;8.70;;;3.43;;
8327;SDS011;4201;48.754;8.864;2024-02-21T12:19:56;5.13;;;2.27;;
8327;SDS011;4201;48.754;8.864;2024-02-21T12:22:22;7.63;;;3.73;;
8327;SDS011;4201;48.754;8.864;2024-02-21T12:24:50;7.50;;;2.30;;
8327;SDS011;4201;48.754;8.864;2024-02-21T12:27:16;10.57;;;2.20;;
8327;SDS011;4201;48.754;8.864;2024-02-21T12:29:42;4.27;;;1.73;;
8327;SDS011;4201;48.754;8.864;2024-02-21T12:32:09;4.27;;;1.93;;
8327;SDS011;4201;48.754;8.864;2024-02-21T12:34:35;7.43;;;2.40;;
8327;SDS011;4201;48.754;8.864;2024-02-21T12:37:01;3.80;;;2.00;;
8327;SDS011;4201;48.754;8.864;2024-02-21T12:39:28;6.30;;;2.03;;
8327;SDS011;4201;48.754;8.864;2024-02-21T12:41:55;8.47;;;2.17;;
8327;SDS011;4201;48.754;8.864;2024-02-21T12:44:22;3.10;;;1.40;;
8327;SDS011;4201;48.754;8.864;2024-02-21T12:46:49;4.70;;;1.73;;
8327;SDS011;4201;48.754;8.864;2024-02-21T12:49:18;4.67;;;1.50;;
8327;SDS011;4201;48.754;8.864;2024-02-21T12:51:45;4.10;;;1.30;;
8327;SDS011;4201;48.754;8.864;2024-02-21T12:54:11;3.60;;;1.37;;
8327;SDS011;4201;48.754;8.864;2024-02-21T12:56:37;4.63;;;1.53;;
8327;SDS011;4201;48.754;8.864;2024-02-21T12:59:06;13.87;;;1.83;;
8327;SDS011;4201;48.754;8.864;2024-02-21T13:01:34;3.57;;;1.47;;
8327;SDS011;4201;48.754;8.864;2024-02-21T13:04:00;3.60;;;1.60;;
8327;SDS011;4201;48.754;8.864;2024-02-21T13:06:26;4.50;;;1.73;;
8327;SDS011;4201;48.754;8.864;2024-02-21T13:08:52;7.53;;;2.03;;
8327;SDS011;4201;48.754;8.864;2024-02-21T13:11:19;5.70;;;2.70;;
8327;SDS011;4201;48.754;8.864;2024-02-21T13:13:45;10.60;;;3.40;;
8327;SDS011;4201;48.754;8.864;2024-02-21T13:16:13;5.53;;;1.90;;
8327;SDS011;4201;48.754;8.864;2024-02-21T13:18:39;5.43;;;2.27;;
8327;SDS011;4201;48.754;8.864;2024-02-21T13:21:07;4.80;;;1.83;;
8327;SDS011;4201;48.754;8.864;2024-02-21T13:23:34;8.30;;;2.67;;
8327;SDS011;4201;48.754;8.864;2024-02-21T13:26:00;5.87;;;2.93;;
8327;SDS011;4201;48.754;8.864;2024-02-21T13:28:26;7.43;;;3.57;;
8327;SDS011;4201;48.754;8.864;2024-02-21T13:30:52;4.50;;;1.77;;
8327;SDS011;4201;48.754;8.864;2024-02-21T13:33:20;5.10;;;1.40;;
8327;SDS011;4201;48.754;8.864;2024-02-21T13:35:46;4.67;;;2.03;;
8327;SDS011;4201;48.754;8.864;2024-02-21T13:38:13;4.03;;;2.27;;
8327;SDS011;4201;48.754;8.864;2024-02-21T13:40:39;6.30;;;1.50;;
8327;SDS011;4201;48.754;8.864;2024-02-21T13:43:07;3.43;;;1.50;;
8327;SDS011;4201;48.754;8.864;2024-02-21T13:45:33;4.57;;;2.03;;
8327;SDS011;4201;48.754;8.864;2024-02-21T13:47:59;2.87;;;1.63;;
8327;SDS011;4201;48.754;8.864;2024-02-21T13:50:29;3.50;;;1.40;;
8327;SDS011;4201;48.754;8.864;2024-02-21T13:52:55;3.60;;;1.33;;
8327;SDS011;4201;48.754;8.864;2024-02-21T13:55:22;4.30;;;1.50;;
8327;SDS011;4201;48.754;8.864;2024-02-21T13:57:51;5.73;;;3.83;;
8327;SDS011;4201;48.754;8.864;2024-02-21T14:00:17;7.50;;;4.00;;
8327;SDS011;4201;48.754;8.864;2024-02-21T14:02:44;6.87;;;2.60;;
8327;SDS011;4201;48.754;8.864;2024-02-21T14:05:10;4.60;;;1.30;;
8327;SDS011;4201;48.754;8.864;2024-02-21T14:07:38;2.90;;;1.30;;
8327;SDS011;4201;48.754;8.864;2024-02-21T14:10:05;3.90;;;2.20;;
8327;SDS011;4201;48.754;8.864;2024-02-21T14:12:32;2.73;;;1.40;;
8327;SDS011;4201;48.754;8.864;2024-02-21T14:14:58;3.20;;;1.30;;
8327;SDS011;4201;48.754;8.864;2024-02-21T14:17:24;4.53;;;1.47;;
8327;SDS011;4201;48.754;8.864;2024-02-21T14:19:51;4.17;;;1.00;;
8327;SDS011;4201;48.754;8.864;2024-02-21T14:22:17;4.47;;;1.50;;
8327;SDS011;4201;48.754;8.864;2024-02-21T14:24:45;7.33;;;1.53;;
8327;SDS011;4201;48.754;8.864;2024-02-21T14:27:11;3.00;;;1.27;;
8327;SDS011;4201;48.754;8.864;2024-02-21T14:29:38;2.10;;;1.13;;
8327;SDS011;4201;48.754;8.864;2024-02-21T14:32:04;2.47;;;1.20;;
8327;SDS011;4201;48.754;8.864;2024-02-21T14:34:32;2.70;;;1.20;;
8327;SDS011;4201;48.754;8.864;2024-02-21T14:36:58;3.07;;;1.40;;
8327;SDS011;4201;48.754;8.864;2024-02-21T14:39:24;8.67;;;2.20;;
8327;SDS011;4201;48.754;8.864;2024-02-21T14:41:53;3.00;;;1.30;;
8327;SDS011;4201;48.754;8.864;2024-02-21T14:44:19;5.97;;;1.33;;
8327;SDS011;4201;48.754;8.864;2024-02-21T14:46:45;3.50;;;1.53;;
8327;SDS011;4201;48.754;8.864;2024-02-21T14:49:12;2.87;;;1.03;;
8327;SDS011;4201;48.754;8.864;2024-02-21T14:51:38;9.50;;;1.57;;
8327;SDS011;4201;48.754;8.864;2024-02-21T14:54:04;4.73;;;1.37;;
8327;SDS011;4201;48.754;8.864;2024-02-21T14:56:30;4.40;;;1.50;;
8327;SDS011;4201;48.754;8.864;2024-02-21T14:58:58;13.40;;;1.93;;
8327;SDS011;4201;48.754;8.864;2024-02-21T15:01:25;3.57;;;1.47;;
8327;SDS011;4201;48.754;8.864;2024-02-21T15:03:51;3.60;;;1.60;;